createdAt,value
2018-02-20T00:01:34.720Z,29.92
2018-02-20T00:04:02.957Z,30.77
2018-02-20T00:06:31.187Z,32.38
2018-02-20T00:09:00.348Z,31.25
2018-02-20T00:11:28.584Z,32.28
2018-02-20T00:13:56.820Z,30.02
2018-02-20T00:16:26.996Z,32.55
2018-02-20T00:18:55.240Z,31.35
2018-02-20T00:21:24.835Z,29.58
2018-02-20T00:23:54.244Z,33.05
2018-02-20T00:26:23.831Z,31.23
2018-02-20T00:28:51.940Z,30.37
2018-02-20T00:31:21.027Z,31.20
2018-02-20T00:33:49.257Z,30.90
2018-02-20T00:36:17.492Z,32.45
2018-02-20T00:38:50.732Z,32.50
2018-02-20T00:41:19.728Z,29.20
2018-02-20T00:43:48.352Z,32.45
2018-02-20T00:46:16.956Z,30.65
2018-02-20T00:48:45.951Z,31.58
2018-02-20T00:51:14.184Z,30.50
2018-02-20T00:53:42.988Z,30.85
2018-02-20T00:56:12.356Z,31.52
2018-02-20T00:58:40.605Z,29.85
2018-02-20T01:01:09.772Z,31.80
2018-02-20T01:03:39.524Z,31.60
2018-02-20T01:06:07.777Z,30.02
2018-02-20T01:08:37.525Z,34.42
2018-02-20T01:11:05.794Z,32.08
2018-02-20T01:13:35.171Z,28.35
2018-02-20T01:16:03.748Z,32.45
2018-02-20T01:18:33.486Z,31.73
2018-02-20T01:21:02.489Z,32.83
2018-02-20T01:23:32.444Z,29.45
2018-02-20T01:26:02.033Z,32.25
2018-02-20T01:28:30.140Z,31.20
2018-02-20T01:30:58.631Z,32.75
2018-02-20T01:33:27.996Z,32.00
2018-02-20T01:35:57.005Z,31.08
2018-02-20T01:38:25.393Z,31.98
2018-02-20T01:40:55.218Z,30.75
2018-02-20T01:43:24.593Z,31.12
2018-02-20T01:45:54.796Z,34.00
2018-02-20T01:48:23.020Z,32.97
2018-02-20T01:51:03.272Z,32.63
2018-02-20T01:53:31.505Z,30.95
2018-02-20T01:55:59.740Z,29.58
2018-02-20T01:58:29.580Z,31.65
2018-02-20T02:00:59.047Z,31.73
2018-02-20T02:03:28.508Z,33.08
2018-02-20T02:05:57.741Z,29.65
2018-02-20T02:08:27.480Z,32.20
2018-02-20T02:10:56.484Z,33.60
2018-02-20T02:13:24.974Z,30.77
2018-02-20T02:15:54.723Z,32.08
2018-02-20T02:18:22.952Z,33.10
2018-02-20T02:20:52.799Z,31.85
2018-02-20T02:23:22.412Z,32.40
2018-02-20T02:25:51.404Z,31.60
2018-02-20T02:28:21.483Z,32.90
2018-02-20T02:30:50.856Z,32.22
2018-02-20T02:33:19.076Z,31.20
2018-02-20T02:35:50.467Z,31.48
2018-02-20T02:38:19.101Z,31.05
2018-02-20T02:40:48.096Z,29.63
2018-02-20T02:43:20.828Z,31.65
2018-02-20T02:45:49.452Z,28.42
2018-02-20T02:48:17.685Z,28.08
2018-02-20T02:50:46.449Z,27.92
2018-02-20T02:53:16.033Z,31.17
2018-02-20T02:55:44.137Z,33.05
2018-02-20T03:00:48.169Z,30.55
2018-02-20T03:03:17.152Z,32.30
2018-02-20T03:05:46.892Z,29.20
2018-02-20T03:08:16.340Z,32.28
2018-02-20T03:10:45.336Z,30.52
2018-02-20T03:13:13.571Z,30.37
2018-02-20T03:15:42.616Z,30.73
2018-02-20T03:18:10.860Z,33.78
2018-02-20T03:20:39.113Z,33.53
2018-02-20T03:23:07.542Z,34.47
2018-02-20T03:25:35.825Z,32.60
2018-02-20T03:28:04.052Z,31.50
2018-02-20T03:30:32.413Z,37.40
2018-02-20T03:33:01.408Z,32.60
2018-02-20T03:35:30.408Z,32.05
2018-02-20T03:40:35.124Z,29.58
2018-02-20T03:43:04.691Z,31.42
2018-02-20T03:45:35.510Z,32.00
2018-02-20T03:50:40.948Z,31.95
2018-02-20T03:53:10.420Z,32.45
2018-02-20T03:55:38.559Z,31.83
2018-02-20T03:58:07.381Z,31.27
2018-02-20T04:00:36.751Z,34.85
2018-02-20T04:03:04.975Z,32.45
2018-02-20T04:05:34.850Z,33.22
2018-02-20T04:08:04.088Z,34.63
2018-02-20T04:10:33.099Z,34.55
2018-02-20T04:13:02.304Z,33.08
2018-02-20T04:15:31.300Z,31.65
2018-02-20T04:17:59.532Z,33.88
2018-02-20T04:20:28.036Z,35.97
2018-02-20T04:22:57.772Z,33.20
2018-02-20T04:25:26.785Z,32.78
2018-02-20T04:27:56.627Z,33.35
2018-02-20T04:30:26.230Z,33.78
2018-02-20T04:32:54.338Z,33.58
2018-02-20T04:35:23.064Z,34.30
2018-02-20T04:37:52.431Z,37.20
2018-02-20T04:40:21.056Z,30.92
2018-02-20T04:42:50.428Z,35.25
2018-02-20T04:45:19.428Z,35.80
2018-02-20T04:47:49.433Z,35.38
2018-02-20T04:50:17.802Z,33.45
2018-02-20T04:52:47.536Z,35.70
2018-02-20T04:55:17.268Z,38.17
2018-02-20T04:57:46.356Z,38.63
2018-02-20T05:00:15.344Z,38.70
2018-02-20T05:02:43.567Z,36.10
2018-02-20T05:05:12.012Z,37.22
2018-02-20T05:07:41.759Z,36.05
2018-02-20T05:10:09.992Z,37.78
2018-02-20T05:12:38.586Z,39.10
2018-02-20T05:15:06.848Z,37.95
2018-02-20T05:17:36.223Z,37.08
2018-02-20T05:20:05.328Z,34.92
2018-02-20T05:22:34.323Z,38.10
2018-02-20T05:25:03.326Z,35.55
2018-02-20T05:27:31.705Z,36.83
2018-02-20T05:30:00.731Z,37.63
2018-02-20T05:32:28.928Z,38.42
2018-02-20T05:34:57.492Z,35.72
2018-02-20T05:37:25.737Z,34.17
2018-02-20T05:39:53.960Z,35.22
2018-02-20T05:42:24.132Z,34.03
2018-02-20T05:44:53.492Z,39.70
2018-02-20T05:47:21.725Z,36.63
2018-02-20T05:49:50.779Z,38.42
2018-02-20T05:52:19.775Z,36.97
2018-02-20T05:54:49.359Z,38.15
2018-02-20T05:57:18.044Z,35.70
2018-02-20T05:59:47.968Z,34.30
2018-02-20T06:02:16.960Z,37.10
2018-02-20T06:04:46.858Z,36.20
2018-02-20T06:07:16.464Z,38.20
2018-02-20T06:09:45.460Z,37.80
2018-02-20T06:12:15.352Z,39.08
2018-02-20T06:14:43.588Z,36.55
2018-02-20T06:17:11.933Z,38.13
2018-02-20T06:19:41.073Z,40.03
2018-02-20T06:22:09.321Z,41.65
2018-02-20T06:24:37.567Z,39.55
2018-02-20T06:27:07.822Z,41.47
2018-02-20T06:29:36.073Z,39.47
2018-02-20T06:32:04.464Z,39.53
2018-02-20T06:34:34.552Z,42.13
2018-02-20T06:37:03.921Z,43.58
2018-02-20T06:39:32.148Z,41.97
2018-02-20T06:42:00.791Z,42.08
2018-02-20T06:44:30.160Z,41.67
2018-02-20T06:46:58.384Z,42.53
2018-02-20T06:49:26.937Z,42.90
2018-02-20T06:51:56.748Z,42.17
2018-02-20T06:54:24.873Z,42.00
2018-02-20T06:56:54.749Z,40.00
2018-02-20T06:59:22.976Z,41.05
2018-02-20T07:01:51.601Z,41.40
2018-02-20T07:04:20.038Z,40.70
2018-02-20T07:06:49.028Z,41.72
2018-02-20T07:09:18.021Z,41.95
2018-02-20T07:11:47.348Z,42.53
2018-02-20T07:14:15.576Z,40.72
2018-02-20T07:16:45.156Z,43.45
2018-02-20T07:19:14.548Z,43.35
2018-02-20T07:21:43.915Z,42.30
2018-02-20T07:24:12.152Z,42.35
2018-02-20T07:26:42.120Z,40.65
2018-02-20T07:29:11.864Z,44.13
2018-02-20T07:31:40.105Z,44.55
2018-02-20T07:36:44.027Z,42.72
2018-02-20T07:39:12.540Z,43.63
2018-02-20T07:41:41.552Z,43.90
2018-02-20T07:44:11.303Z,45.35
2018-02-20T07:46:39.546Z,42.47
2018-02-20T07:49:07.790Z,41.65
2018-02-20T07:51:37.436Z,46.72
2018-02-20T07:54:05.900Z,42.75
2018-02-20T07:56:34.123Z,42.53
2018-02-20T07:59:04.016Z,42.08
2018-02-20T08:01:32.247Z,45.65
2018-02-20T08:04:00.476Z,41.88
2018-02-20T08:06:29.700Z,41.37
2018-02-20T08:08:58.332Z,41.70
2018-02-20T08:11:26.572Z,42.60
2018-02-20T08:13:56.560Z,41.30
2018-02-20T08:16:24.787Z,41.33
2018-02-20T08:18:53.024Z,40.58
2018-02-20T08:21:21.459Z,39.80
2018-02-20T08:23:50.472Z,39.22
2018-02-20T08:26:19.468Z,38.77
2018-02-20T08:28:48.208Z,35.73
2018-02-20T08:31:16.831Z,35.80
2018-02-20T08:33:45.061Z,36.80
2018-02-20T08:36:14.388Z,34.10
2018-02-20T08:38:43.392Z,34.87
2018-02-20T08:41:11.635Z,34.20
2018-02-20T08:43:40.501Z,32.90
2018-02-20T08:46:09.520Z,34.17
2018-02-20T08:48:37.781Z,31.37
2018-02-20T08:51:07.145Z,33.83
2018-02-20T08:53:35.768Z,32.03
2018-02-20T08:56:04.279Z,32.47
2018-02-20T08:58:32.779Z,31.43
2018-02-20T09:01:01.014Z,34.00
2018-02-20T09:03:29.240Z,33.07
2018-02-20T09:05:59.823Z,35.50
2018-02-20T09:08:28.453Z,32.70
2018-02-20T09:10:56.704Z,32.90
2018-02-20T09:13:28.731Z,36.17
2018-02-20T09:15:56.987Z,34.93
2018-02-20T09:18:25.239Z,32.97
2018-02-20T09:20:54.687Z,30.30
2018-02-20T09:23:23.312Z,33.30
2018-02-20T09:25:51.547Z,33.90
2018-02-20T09:28:21.444Z,34.40
2018-02-20T09:30:49.676Z,32.07
2018-02-20T09:33:19.259Z,32.30
2018-02-20T09:35:47.926Z,32.50
2018-02-20T09:38:16.924Z,34.00
2018-02-20T09:40:46.730Z,31.80
2018-02-20T09:43:15.554Z,34.13
2018-02-20T09:45:44.175Z,32.17
2018-02-20T09:48:13.172Z,32.97
2018-02-20T09:50:42.880Z,33.20
2018-02-20T09:53:11.521Z,33.77
2018-02-20T09:55:40.539Z,33.63
2018-02-20T09:58:10.628Z,33.90
2018-02-20T10:00:38.763Z,33.50
2018-02-20T10:03:06.998Z,34.63
2018-02-20T10:05:35.444Z,33.13
2018-02-20T10:08:04.448Z,33.40
2018-02-20T10:10:33.448Z,30.80
2018-02-20T10:13:01.948Z,32.83
2018-02-20T10:15:31.693Z,33.13
2018-02-20T10:17:59.926Z,31.40
2018-02-20T10:20:29.868Z,32.07
2018-02-20T10:22:58.870Z,32.27
2018-02-20T10:25:27.880Z,31.83
2018-02-20T10:27:56.831Z,30.73
2018-02-20T10:30:25.076Z,34.17
2018-02-20T10:32:53.304Z,32.80
2018-02-20T10:35:22.547Z,32.77
2018-02-20T10:37:51.548Z,33.50
2018-02-20T10:40:20.548Z,35.80
2018-02-20T10:42:49.812Z,33.50
2018-02-20T10:45:18.811Z,33.20
2018-02-20T10:47:47.043Z,33.37
2018-02-20T10:50:16.152Z,33.43
2018-02-20T10:52:45.148Z,32.57
2018-02-20T10:55:13.379Z,34.20
2018-02-20T10:57:41.885Z,37.30
2018-02-20T11:00:10.436Z,36.47
2018-02-20T11:02:38.715Z,33.33
2018-02-20T11:05:07.823Z,36.80
2018-02-20T11:07:36.062Z,36.00
2018-02-20T11:10:04.287Z,35.57
2018-02-20T11:12:32.673Z,37.63
2018-02-20T11:15:00.904Z,37.47
2018-02-20T11:17:29.904Z,36.63
2018-02-20T11:19:59.156Z,36.83
2018-02-20T11:22:28.163Z,37.47
2018-02-20T11:24:57.175Z,36.37
2018-02-20T11:27:25.817Z,36.70
2018-02-20T11:30:02.420Z,38.00
2018-02-20T11:32:31.421Z,37.53
2018-02-20T11:34:59.673Z,35.57
2018-02-20T11:37:27.925Z,38.10
2018-02-20T11:39:57.064Z,37.47
2018-02-20T11:42:25.300Z,35.27
2018-02-20T11:44:53.531Z,35.10
2018-02-20T11:47:24.596Z,35.77
2018-02-20T11:49:54.192Z,35.40
2018-02-20T11:52:22.293Z,35.10
2018-02-20T11:54:52.756Z,34.87
2018-02-20T11:57:20.990Z,33.40
2018-02-20T11:59:49.220Z,31.67
2018-02-20T12:04:55.725Z,25.33
2018-02-20T12:07:24.722Z,25.77
2018-02-20T12:09:52.956Z,26.70
2018-02-20T12:12:21.574Z,25.30
2018-02-20T12:14:51.131Z,28.40
2018-02-20T12:17:20.003Z,25.60
2018-02-20T12:19:49.632Z,25.30
2018-02-20T12:22:17.863Z,27.37
2018-02-20T12:24:47.237Z,29.03
2018-02-20T12:27:16.824Z,29.20
2018-02-20T12:29:45.843Z,29.23
2018-02-20T12:32:14.073Z,28.03
2018-02-20T12:34:42.621Z,29.43
2018-02-20T12:37:12.204Z,29.77
2018-02-20T12:39:40.320Z,29.90
2018-02-20T12:42:08.860Z,26.60
2018-02-20T12:44:38.443Z,28.27
2018-02-20T12:47:06.552Z,25.97
2018-02-20T12:49:36.736Z,27.50
2018-02-20T12:52:06.476Z,26.90
2018-02-20T12:54:34.722Z,28.50
2018-02-20T12:57:03.296Z,28.03
2018-02-20T12:59:31.540Z,28.17
2018-02-20T13:01:59.787Z,26.90
2018-02-20T13:04:30.146Z,27.00
2018-02-20T13:06:59.159Z,26.73
2018-02-20T13:09:28.177Z,26.17
2018-02-20T13:11:59.067Z,25.03
2018-02-20T13:14:27.588Z,24.67
2018-02-20T13:16:56.545Z,24.27
2018-02-20T13:19:24.965Z,22.03
2018-02-20T13:21:53.964Z,24.50
2018-02-20T13:24:22.192Z,26.43
2018-02-20T13:26:50.796Z,25.13
2018-02-20T13:29:20.172Z,26.57
2018-02-20T13:31:48.400Z,24.57
2018-02-20T13:34:17.244Z,23.50
2018-02-20T13:36:46.616Z,18.77
2018-02-20T13:39:14.849Z,19.27
2018-02-20T13:41:43.384Z,19.73
2018-02-20T13:44:11.615Z,20.00
2018-02-20T13:46:39.844Z,18.60
2018-02-20T13:49:08.224Z,19.10
2018-02-20T13:51:37.231Z,20.13
2018-02-20T13:54:05.467Z,20.77
2018-02-20T13:56:34.752Z,22.77
2018-02-20T13:59:03.767Z,23.23
2018-02-20T14:01:32.005Z,24.67
2018-02-20T14:04:02.719Z,24.60
2018-02-20T14:06:31.965Z,22.80
2018-02-20T14:09:00.970Z,26.80
2018-02-20T14:11:31.141Z,25.50
2018-02-20T14:13:59.273Z,25.70
2018-02-20T14:16:28.294Z,27.80
2018-02-20T14:18:56.744Z,25.10
2018-02-20T14:21:24.980Z,24.97
2018-02-20T14:23:53.216Z,23.47
2018-02-20T14:26:22.558Z,25.63
2018-02-20T14:28:51.561Z,22.37
2018-02-20T14:31:19.792Z,21.77
2018-02-20T14:33:49.108Z,23.20
2018-02-20T14:36:17.345Z,24.17
2018-02-20T14:38:45.576Z,22.73
2018-02-20T14:41:14.538Z,19.77
2018-02-20T14:43:43.536Z,19.30
2018-02-20T14:46:12.542Z,18.80
2018-02-20T14:48:41.997Z,20.67
2018-02-20T14:51:11.735Z,21.37
2018-02-20T14:53:39.972Z,20.67
2018-02-20T14:56:08.753Z,21.70
2018-02-20T14:58:38.335Z,22.80
2018-02-20T15:01:06.500Z,23.53
2018-02-20T15:03:36.751Z,24.03
2018-02-20T15:06:05.633Z,23.83
2018-02-20T15:08:34.936Z,26.57
2018-02-20T15:11:05.235Z,24.87
2018-02-20T15:13:33.496Z,22.90
2018-02-20T15:16:02.885Z,25.23
2018-02-20T15:18:31.581Z,26.03
2018-02-20T15:21:01.321Z,26.77
2018-02-20T15:23:29.571Z,25.20
2018-02-20T15:25:58.060Z,24.00
2018-02-20T15:28:26.317Z,25.50
2018-02-20T15:30:55.717Z,25.60
2018-02-20T15:33:24.353Z,23.77
2018-02-20T15:35:54.101Z,26.77
2018-02-20T15:38:22.340Z,25.37
2018-02-20T15:40:50.912Z,26.23
2018-02-20T15:43:20.509Z,24.20
2018-02-20T15:45:48.620Z,24.70
2018-02-20T15:48:17.169Z,24.67
2018-02-20T15:50:45.405Z,25.83
2018-02-20T15:53:14.996Z,26.47
2018-02-20T15:55:43.176Z,26.57
2018-02-20T15:58:12.756Z,26.97
2018-02-20T16:00:41.256Z,27.47
2018-02-20T16:03:10.564Z,27.10
2018-02-20T16:05:39.188Z,26.20
2018-02-20T16:08:07.420Z,25.70
2018-02-20T16:10:42.886Z,27.27
2018-02-20T16:13:11.513Z,25.40
2018-02-20T16:15:40.528Z,24.50
2018-02-20T16:18:10.576Z,25.47
2018-02-20T16:20:38.688Z,26.43
2018-02-20T16:23:06.920Z,25.10
2018-02-20T16:28:10.328Z,25.60
2018-02-20T16:30:39.917Z,24.73
2018-02-20T16:33:08.420Z,23.93
2018-02-20T16:35:36.794Z,27.07
2018-02-20T16:38:05.041Z,25.67
2018-02-20T16:40:33.275Z,26.87
2018-02-20T16:43:02.142Z,29.27
2018-02-20T16:45:31.882Z,27.90
2018-02-20T16:48:00.126Z,29.33
2018-02-20T16:50:30.690Z,28.70
2018-02-20T16:52:59.577Z,25.67
2018-02-20T16:55:29.176Z,28.17
2018-02-20T16:57:57.948Z,29.97
2018-02-20T17:00:26.188Z,29.87
2018-02-20T17:02:54.421Z,28.80
2018-02-20T17:05:24.264Z,28.00
2018-02-20T17:07:54.004Z,26.50
2018-02-20T17:10:22.236Z,27.27
2018-02-20T17:12:52.352Z,26.27
2018-02-20T17:15:21.337Z,26.03
2018-02-20T17:17:49.573Z,25.40
2018-02-20T17:20:20.119Z,27.03
2018-02-20T17:22:49.117Z,27.80
2018-02-20T17:25:17.344Z,26.80
2018-02-20T17:27:45.850Z,26.97
2018-02-20T17:30:15.216Z,29.30
2018-02-20T17:32:43.482Z,27.47
2018-02-20T17:35:11.997Z,27.40
2018-02-20T17:37:41.365Z,30.83
2018-02-20T17:40:09.588Z,28.50
2018-02-20T17:42:39.877Z,30.03
2018-02-20T17:45:08.877Z,29.03
2018-02-20T17:47:37.109Z,30.87
2018-02-20T17:50:05.628Z,29.90
2018-02-20T17:52:33.864Z,28.47
2018-02-20T17:55:02.121Z,31.20
2018-02-20T17:57:30.616Z,29.63
2018-02-20T17:59:58.864Z,29.67
2018-02-20T18:02:27.808Z,29.67
2018-02-20T18:04:58.208Z,31.07
2018-02-20T18:07:27.583Z,30.17
2018-02-20T18:09:55.818Z,29.30
2018-02-20T18:12:25.645Z,29.90
2018-02-20T18:14:55.521Z,27.93
2018-02-20T18:17:23.744Z,31.47
2018-02-20T18:19:52.292Z,33.33
2018-02-20T18:22:21.292Z,31.33
2018-02-20T18:24:49.524Z,29.20
2018-02-20T18:27:17.831Z,29.97
2018-02-20T18:29:46.077Z,30.70
2018-02-20T18:32:14.314Z,30.20
2018-02-20T18:34:44.252Z,31.50
2018-02-20T18:37:12.876Z,31.43
2018-02-20T18:39:41.119Z,30.50
2018-02-20T18:42:10.053Z,30.33
2018-02-20T18:44:38.296Z,29.43
2018-02-20T18:47:07.289Z,30.90
2018-02-20T18:49:37.040Z,33.27
2018-02-20T18:52:06.777Z,31.67
2018-02-20T18:54:35.010Z,32.25
2018-02-20T18:57:04.340Z,31.10
2018-02-20T18:59:33.928Z,32.27
2018-02-20T19:02:02.065Z,31.70
2018-02-20T19:04:31.689Z,31.10
2018-02-20T19:06:59.935Z,33.47
2018-02-20T19:09:28.586Z,30.62
2018-02-20T19:11:58.689Z,33.05
2018-02-20T19:14:27.700Z,36.00
2018-02-20T19:16:56.911Z,33.88
2018-02-20T19:19:26.100Z,35.67
2018-02-20T19:21:54.337Z,31.90
2018-02-20T19:24:22.568Z,34.50
2018-02-20T19:26:50.936Z,31.90
2018-02-20T19:29:19.175Z,32.70
2018-02-20T19:31:48.549Z,32.65
2018-02-20T19:34:17.960Z,33.33
2018-02-20T19:36:46.600Z,33.70
2018-02-20T19:39:14.851Z,37.30
2018-02-20T19:41:44.192Z,33.92
2018-02-20T19:44:13.189Z,36.50
2018-02-20T19:46:41.416Z,36.20
2018-02-20T19:49:10.684Z,36.58
2018-02-20T19:51:39.268Z,37.75
2018-02-20T19:54:08.268Z,37.65
2018-02-20T19:56:38.116Z,36.58
2018-02-20T19:59:07.741Z,37.67
2018-02-20T20:01:37.326Z,36.05
2018-02-20T20:04:06.581Z,39.45
2018-02-20T20:06:35.952Z,37.83
2018-02-20T20:09:04.193Z,37.13
2018-02-20T20:14:07.175Z,38.27
2018-02-20T20:16:35.409Z,37.53
2018-02-20T20:19:03.854Z,37.42
2018-02-20T20:21:33.949Z,39.95
2018-02-20T20:24:02.960Z,40.40
2018-02-20T20:26:31.212Z,40.20
2018-02-20T20:28:59.606Z,40.38
2018-02-20T20:31:27.866Z,39.58
2018-02-20T20:33:56.153Z,39.33
2018-02-20T20:36:24.621Z,39.28
2018-02-20T20:38:54.360Z,38.50
2018-02-20T20:41:22.608Z,38.67
2018-02-20T20:43:51.933Z,41.53
2018-02-20T20:46:20.184Z,42.00
2018-02-20T20:48:48.426Z,38.35
2018-02-20T20:53:53.020Z,40.75
2018-02-20T20:56:22.617Z,41.33
2018-02-20T20:58:50.725Z,40.47
2018-02-20T21:01:20.630Z,40.63
2018-02-20T21:03:48.864Z,39.92
2018-02-20T21:06:17.516Z,40.40
2018-02-20T21:08:46.660Z,37.00
2018-02-20T21:11:16.034Z,38.80
2018-02-20T21:13:45.040Z,39.95
2018-02-20T21:16:13.694Z,43.38
2018-02-20T21:18:41.920Z,40.78
2018-02-20T21:21:12.272Z,42.38
2018-02-20T21:23:41.524Z,40.17
2018-02-20T21:26:09.767Z,43.17
2018-02-20T21:28:37.996Z,42.25
2018-02-20T21:31:06.372Z,42.85
2018-02-20T21:33:34.656Z,41.75
2018-02-20T21:36:02.853Z,42.58
2018-02-20T21:38:32.916Z,42.15
2018-02-20T21:41:01.161Z,41.00
2018-02-20T21:43:29.430Z,45.80
2018-02-20T21:45:58.948Z,43.28
2018-02-20T21:48:27.197Z,44.97
2018-02-20T21:50:55.428Z,42.83
2018-02-20T21:53:24.957Z,43.60
2018-02-20T21:55:53.961Z,44.17
2018-02-20T21:58:23.551Z,42.85
2018-02-20T22:00:52.141Z,40.97
2018-02-20T22:03:21.141Z,43.20
2018-02-20T22:05:50.348Z,45.67
2018-02-20T22:08:19.792Z,43.97
2018-02-20T22:10:49.528Z,44.58
2018-02-20T22:13:17.768Z,44.50
2018-02-20T22:15:46.323Z,48.47
2018-02-20T22:18:14.558Z,46.00
2018-02-20T22:20:42.795Z,44.55
2018-02-20T22:23:12.388Z,43.85
2018-02-20T22:25:41.971Z,48.97
2018-02-20T22:28:11.220Z,45.78
2018-02-20T22:30:39.632Z,44.75
2018-02-20T22:33:08.632Z,45.15
2018-02-20T22:35:38.216Z,48.05
2018-02-20T22:38:07.430Z,50.20
2018-02-20T22:40:37.173Z,45.72
2018-02-20T22:43:05.406Z,45.72
2018-02-20T22:45:34.268Z,44.03
2018-02-20T22:48:03.265Z,46.42
2018-02-20T22:50:31.509Z,46.45
2018-02-20T22:53:00.219Z,45.97
2018-02-20T22:55:28.462Z,49.63
2018-02-20T22:57:57.853Z,47.25
2018-02-20T23:00:26.365Z,47.53
2018-02-20T23:02:55.951Z,46.95
2018-02-20T23:05:24.052Z,44.15
2018-02-20T23:07:52.575Z,47.97
2018-02-20T23:10:22.317Z,48.60
2018-02-20T23:12:51.919Z,49.10
2018-02-20T23:15:21.294Z,49.00
2018-02-20T23:17:49.519Z,49.63
2018-02-20T23:20:17.759Z,50.78
2018-02-20T23:22:47.844Z,47.92
2018-02-20T23:25:18.929Z,48.95
2018-02-20T23:27:47.195Z,47.83
2018-02-20T23:30:16.748Z,48.65
2018-02-20T23:32:45.384Z,49.10
2018-02-20T23:35:13.617Z,48.53
2018-02-20T23:40:16.608Z,47.75
2018-02-20T23:42:45.621Z,50.85
2018-02-20T23:45:15.208Z,47.13
2018-02-20T23:47:44.483Z,48.80
2018-02-20T23:50:14.060Z,48.70
2018-02-20T23:52:42.172Z,49.80
2018-02-20T23:55:12.352Z,48.33
2018-02-20T23:57:41.344Z,49.13
